Main page
METAR-TAF:

METAR-TAF

Airports :

Benazir Bhutto International Airport

Islamabad, Pakistan

latitude: 33-37N, longitude: 073-06E, elevation: 507 m

Current weather observation

The report was made 25 minutes ago, at 22:30 UTC
Calm wind
Temperature 10°C
Humidity 93%
Pressure 1017 hPa
Visibility: 7000 m

METAR: OPRN 142230Z 00000KT 7000 NSC 10/09 Q1017 NOSIG RMK A3006

Time: 03:55 (22:55 UTC)

Forecast

The report was made 7 hours and 25 minutes ago, at 15:30 UTC
Forecast valid from 14 at 18 UTC to 15 at 24 UTC
Wind 10 kt from the Northeast
Visibility: 8000 m
Temporary
from 15 at 00 UTC to 15 at 03 UTC
Wind 10 kt from the Southeast
Visibility: 2000 m
mist
Temporary
from 15 at 04 UTC to 15 at 15 UTC
Visibility 10 km or more
no clouds below 1500 m and no cumulonimbus

TAF: OPRN 141530Z 1418/1524 05010KT 8000 NSC TEMPO 1500/1503 13010KT 2000 BR NSC TEMPO 1504/1515 CAVOK

Weather observations and forecasts of more than 4000 airports (METAR and TAF reports).

The available stations are represented by yellow and red dots on the map.

Hover mouse over dot to see the name of the station.

Then click to see weather observations and forecasts.

To change the map : click on the green buttons with a black cross to zoom in, on the green button with a dash to zoom out, or on the green arrows for adjacent maps.


METAR-TAF: